Time;durP1;ratioP1;P1;durP2;ratioP2;P2;SDS_P1;SDS_P2;PMS_P1;PMS_P2;Temp;Humidity;BMP_temperature;BMP_pressure;BME280_temperature;BME280_humidity;BME280_pressure;Samples;Min_cycle;Max_cycle;Signal;HPM_P1;HPM_P2
2022/09/21 00:01:11;;;;;;;;;7.25;6.00;;;;;21.05;37.58;102022.34;5098530;27;46951;-50
2022/09/21 00:03:38;;;;;;;;;5.00;5.00;;;;;21.01;37.87;102011.91;5099944;27;45384;-52
2022/09/21 00:06:12;;;;;;;;;6.00;5.50;;;;;21.04;37.65;102023.25;5098449;27;45602;-49
2022/09/21 00:08:37;;;;;;;;;5.25;5.25;;;;;21.03;37.84;102029.44;5099660;27;46311;-51
2022/09/21 00:11:04;;;;;;;;;7.25;6.00;;;;;21.03;37.72;102018.91;5115336;27;44885;-51
2022/09/21 00:13:31;;;;;;;;;5.75;5.25;;;;;21.02;37.84;102015.41;5115851;27;44806;-47
2022/09/21 00:15:57;;;;;;;;;6.00;5.50;;;;;21.02;37.87;102023.31;5114528;27;45455;-51
2022/09/21 00:18:23;;;;;;;;;5.00;5.00;;;;;21.02;37.77;102018.06;5102710;27;46585;-47
2022/09/21 00:20:49;;;;;;;;;8.00;5.75;;;;;21.02;37.54;102015.41;5098825;27;45329;-49
2022/09/21 00:23:14;;;;;;;;;5.50;5.00;;;;;21.00;37.71;102010.19;5114274;27;45758;-51
2022/09/21 00:25:40;;;;;;;;;5.75;5.75;;;;;21.02;37.45;102015.41;5119708;27;45389;-45
2022/09/21 00:28:05;;;;;;;;;4.50;4.50;;;;;21.01;37.59;102019.81;5110881;27;45507;-48
2022/09/21 00:30:30;;;;;;;;;3.75;3.75;;;;;21.01;37.93;102022.44;5099320;27;45465;-51
2022/09/21 00:32:56;;;;;;;;;3.00;3.00;;;;;21.00;37.82;102018.09;5099424;27;45449;-45
2022/09/21 00:35:21;;;;;;;;;7.00;6.25;;;;;21.00;37.92;102019.88;5118606;27;45294;-51
2022/09/21 00:37:47;;;;;;;;;4.00;4.00;;;;;21.00;38.00;102015.47;5099633;27;45407;-51
2022/09/21 00:40:12;;;;;;;;;6.00;6.00;;;;;21.00;37.81;102017.25;5097407;27;45406;-49
2022/09/21 00:42:38;;;;;;;;;5.00;4.25;;;;;21.00;37.72;102010.19;5098892;27;45407;-50
2022/09/21 00:45:04;;;;;;;;;6.00;5.00;;;;;20.99;37.65;102021.69;5098565;27;45768;-50
2022/09/21 00:47:32;;;;;;;;;5.50;5.00;;;;;21.00;37.55;102020.72;5098238;27;45438;-49
2022/09/21 00:50:01;;;;;;;;;6.00;4.00;;;;;21.00;37.92;102026.00;5098041;27;45377;-50
2022/09/21 00:52:31;;;;;;;;;5.50;5.50;;;;;21.00;37.99;102025.16;5098595;27;45445;-50
2022/09/21 00:55:02;;;;;;;;;4.00;4.00;;;;;20.99;37.45;102023.44;5097652;27;45372;-51
2022/09/21 00:57:30;;;;;;;;;7.25;7.25;;;;;20.99;37.76;102024.31;5098270;27;46490;-53
2022/09/21 00:59:58;;;;;;;;;5.00;5.00;;;;;20.96;37.56;102024.41;5098003;27;45412;-51
2022/09/21 01:02:24;;;;;;;;;4.00;4.00;;;;;20.98;37.92;102022.59;5098502;27;45329;-46
2022/09/21 01:04:54;;;;;;;;;5.00;5.00;;;;;20.99;37.86;102026.94;5098645;27;45443;-49
2022/09/21 01:07:27;;;;;;;;;5.00;5.00;;;;;20.98;37.89;102027.88;5100267;27;46253;-49
2022/09/21 01:09:57;;;;;;;;;7.25;5.00;;;;;20.98;37.46;102027.88;5102638;27;45314;-45
2022/09/21 01:12:48;;;;;;;;;7.25;5.00;;;;;20.99;37.46;102028.72;5098474;27;45383;-49
2022/09/21 01:15:33;;;;;;;;;6.00;5.25;;;;;20.98;37.96;102033.13;5098651;27;45540;-47
2022/09/21 01:18:10;;;;;;;;;6.25;5.00;;;;;20.98;37.67;102030.50;5097932;27;46351;-45
2022/09/21 01:21:01;;;;;;;;;2.50;2.50;;;;;20.98;37.44;102034.91;5098500;27;45223;-45
2022/09/21 01:23:43;;;;;;;;;5.25;4.50;;;;;20.94;37.90;102031.53;5098602;27;45319;-46
2022/09/21 01:26:26;;;;;;;;;5.50;4.00;;;;;20.97;38.00;102036.69;5098440;27;45494;-46
2022/09/21 01:29:06;;;;;;;;;4.00;4.00;;;;;20.98;38.04;102032.25;5100261;27;46517;-48
2022/09/21 01:31:45;;;;;;;;;7.00;5.00;;;;;20.98;37.74;102032.25;5103680;27;45457;-48
2022/09/21 01:34:24;;;;;;;;;3.00;3.00;;;;;20.95;37.54;102027.97;5121514;27;44669;-46
2022/09/21 01:36:55;;;;;;;;;4.25;4.25;;;;;20.95;37.95;102032.38;5121917;27;44791;-51
2022/09/21 01:39:22;;;;;;;;;3.75;3.75;;;;;20.97;37.49;102034.06;5118693;27;45566;-48
2022/09/21 01:41:51;;;;;;;;;3.75;3.75;;;;;20.95;37.37;102030.59;5098323;27;45394;-50
2022/09/21 01:44:21;;;;;;;;;4.50;3.00;;;;;20.94;37.62;102034.16;5098606;27;45324;-49
2022/09/21 01:46:48;;;;;;;;;4.75;4.75;;;;;20.96;37.58;102034.09;5098885;27;45345;-52
2022/09/21 01:49:28;;;;;;;;;3.50;3.50;;;;;20.94;37.75;102028.88;5099222;27;45450;-49
2022/09/21 01:51:58;;;;;;;;;3.00;3.00;;;;;20.94;37.62;102028.88;5102456;27;45169;-53
2022/09/21 01:54:31;;;;;;;;;4.50;4.50;;;;;20.94;38.07;102028.88;5109225;27;45563;-47
2022/09/21 01:57:14;;;;;;;;;5.00;3.00;;;;;20.93;38.11;102027.16;5109599;27;45350;-53
2022/09/21 01:59:49;;;;;;;;;5.75;4.75;;;;;20.95;37.79;102022.69;5097959;27;45605;-49
2022/09/21 02:02:30;;;;;;;;;4.50;3.75;;;;;20.93;38.02;102029.81;5098046;27;45332;-53
2022/09/21 02:04:57;;;;;;;;;3.00;3.00;;;;;20.94;37.50;102025.41;5097804;27;45450;-52
2022/09/21 02:07:23;;;;;;;;;3.25;3.25;;;;;20.93;37.89;102027.16;5098233;27;45643;-53
2022/09/21 02:09:49;;;;;;;;;5.00;4.00;;;;;20.94;37.61;102025.41;5094242;27;45482;-52
2022/09/21 02:12:14;;;;;;;;;3.50;3.50;;;;;20.94;37.85;102023.63;5100060;27;45226;-53
2022/09/21 02:14:40;;;;;;;;;4.00;4.00;;;;;20.94;37.59;102025.41;5104157;27;45386;-49
2022/09/21 02:17:25;;;;;;;;;4.00;4.00;;;;;20.94;38.01;102028.03;5115717;27;44834;-53
2022/09/21 02:19:56;;;;;;;;;4.75;3.00;;;;;20.94;37.71;102028.03;5116348;27;45439;-49
2022/09/21 02:22:53;;;;;;;;;4.00;3.00;;;;;20.92;37.91;102028.09;5118870;27;45960;-54
2022/09/21 02:25:36;;;;;;;;;3.50;3.50;;;;;20.92;38.05;102025.44;5116592;27;44748;-54
2022/09/21 02:28:29;;;;;;;;;2.50;2.25;;;;;20.92;37.96;102025.44;5118515;27;44837;-53
2022/09/21 02:31:08;;;;;;;;;3.75;3.50;;;;;20.92;37.88;102024.59;5110062;27;46436;-51
2022/09/21 02:33:45;;;;;;;;;3.50;3.50;;;;;20.92;37.66;102022.81;5106225;27;45696;-52
2022/09/21 02:36:31;;;;;;;;;4.00;4.00;;;;;20.92;38.03;102021.97;5106463;27;45270;-52
2022/09/21 02:39:03;;;;;;;;;2.50;2.50;;;;;20.88;37.97;102015.97;5100958;27;45197;-48
2022/09/21 02:41:47;;;;;;;;;3.25;3.25;;;;;20.92;37.77;102019.34;5097857;27;45733;-50
2022/09/21 02:44:32;;;;;;;;;4.50;3.00;;;;;20.89;37.85;102020.28;5098003;27;45326;-48
2022/09/21 02:47:09;;;;;;;;;3.00;3.00;;;;;20.91;37.83;102015.81;5097211;27;45499;-51
2022/09/21 02:49:41;;;;;;;;;3.00;3.00;;;;;20.89;37.75;102016.81;5098045;27;45227;-46
2022/09/21 02:52:13;;;;;;;;;5.00;4.50;;;;;20.89;37.72;102012.38;5097130;27;45662;-48
2022/09/21 02:54:43;;;;;;;;;2.00;2.00;;;;;20.89;37.97;102006.25;5092705;27;46295;-45
2022/09/21 02:57:11;;;;;;;;;6.00;4.25;;;;;20.90;37.80;102014.09;5096954;27;45287;-45
2022/09/21 02:59:37;;;;;;;;;4.25;3.25;;;;;20.90;37.78;102008.81;5113238;27;45629;-48
2022/09/21 03:02:04;;;;;;;;;3.00;3.00;;;;;20.89;38.18;102008.91;5096620;27;46211;-45
2022/09/21 03:04:30;;;;;;;;;3.00;3.00;;;;;20.89;37.70;102009.75;5096613;27;45256;-45
2022/09/21 03:06:55;;;;;;;;;4.25;3.00;;;;;20.91;37.94;102007.06;5095502;27;45451;-46
2022/09/21 03:09:23;;;;;;;;;4.25;3.00;;;;;20.88;37.70;102008.06;5096306;27;45332;-48
2022/09/21 03:11:49;;;;;;;;;3.00;3.00;;;;;20.88;37.79;102002.78;5097560;27;46911;-46
2022/09/21 03:14:16;;;;;;;;;4.00;4.00;;;;;20.89;38.21;102008.91;5110463;27;45141;-46
2022/09/21 03:16:41;;;;;;;;;4.50;3.75;;;;;20.87;38.22;102008.97;5103320;27;45221;-45
2022/09/21 03:19:07;;;;;;;;;3.25;3.25;;;;;20.88;38.17;102004.53;5103255;27;45178;-49
2022/09/21 03:21:33;;;;;;;;;2.50;2.50;;;;;20.89;38.21;102008.91;5104927;27;46480;-53
2022/09/21 03:23:58;;;;;;;;;4.00;4.00;;;;;20.89;37.68;102007.09;5104334;27;45253;-50
2022/09/21 03:26:24;;;;;;;;;5.00;3.50;;;;;20.87;37.87;102011.59;5103823;27;45882;-45
2022/09/21 03:28:50;;;;;;;;;2.75;2.75;;;;;20.87;37.80;102003.69;5078529;27;45595;-50
2022/09/21 03:31:16;;;;;;;;;3.50;2.75;;;;;20.88;37.68;102005.41;5098283;27;46650;-50
2022/09/21 03:33:41;;;;;;;;;3.00;3.00;;;;;20.88;37.58;102008.06;5099549;27;45346;-50
2022/09/21 03:36:07;;;;;;;;;5.50;3.00;;;;;20.88;37.96;102009.81;5100222;27;45435;-52
2022/09/21 03:38:32;;;;;;;;;3.25;2.75;;;;;20.88;37.84;102013.31;5099275;27;45547;-52
2022/09/21 03:40:58;;;;;;;;;3.00;3.00;;;;;20.87;37.72;102006.34;5099303;27;45732;-53
2022/09/21 03:43:24;;;;;;;;;3.00;2.00;;;;;20.88;38.02;102008.06;5099544;27;45403;-53
2022/09/21 03:45:49;;;;;;;;;4.00;4.00;;;;;20.88;38.08;102009.81;5111178;27;45315;-48
2022/09/21 03:48:15;;;;;;;;;3.50;3.50;;;;;20.87;37.67;102008.97;5122942;27;47247;-47
2022/09/21 03:50:41;;;;;;;;;2.25;2.25;;;;;20.88;37.73;102009.81;5116531;27;46493;-48
2022/09/21 03:53:09;;;;;;;;;3.00;3.00;;;;;20.87;37.81;102013.34;5099652;27;45325;-52
2022/09/21 03:55:35;;;;;;;;;3.00;3.00;;;;;20.85;37.89;102011.63;5099961;27;45811;-46
2022/09/21 03:58:00;;;;;;;;;3.00;3.00;;;;;20.87;38.13;102016.88;5102234;27;45343;-46
2022/09/21 04:00:26;;;;;;;;;4.00;2.00;;;;;20.86;37.95;102015.16;5103132;27;45335;-48
2022/09/21 04:02:52;;;;;;;;;4.00;3.75;;;;;20.86;37.81;102015.16;5099017;27;45333;-48
2022/09/21 04:05:17;;;;;;;;;5.50;3.00;;;;;20.88;38.07;102009.81;5099568;27;45381;-46
2022/09/21 04:07:47;;;;;;;;;4.50;4.00;;;;;20.86;38.21;102009.88;5098716;27;45458;-48
2022/09/21 04:10:18;;;;;;;;;6.25;5.25;;;;;20.85;38.09;102001.09;5098878;27;46257;-46
2022/09/21 04:12:44;;;;;;;;;5.00;5.00;;;;;20.85;38.07;102005.53;5098541;27;45247;-45
2022/09/21 04:15:12;;;;;;;;;4.00;4.00;;;;;20.85;37.91;102014.28;5099036;27;45447;-45
2022/09/21 04:17:37;;;;;;;;;6.50;6.50;;;;;20.84;37.66;102009.06;5099602;27;45511;-49
2022/09/21 04:20:04;;;;;;;;;4.75;4.50;;;;;20.85;37.99;102002.88;5098570;27;46430;-47
2022/09/21 04:22:30;;;;;;;;;6.00;6.00;;;;;20.84;38.17;102009.06;5098383;27;45450;-47
2022/09/21 04:24:55;;;;;;;;;7.50;5.00;;;;;20.84;37.77;102003.81;5099413;27;45439;-48
2022/09/21 04:27:21;;;;;;;;;7.75;6.00;;;;;20.84;38.33;102006.44;5098721;27;45365;-49
2022/09/21 04:29:47;;;;;;;;;6.25;6.25;;;;;20.83;37.74;102005.59;5098641;27;46842;-47
2022/09/21 04:32:13;;;;;;;;;5.75;5.75;;;;;20.84;38.17;102003.81;5098380;27;45425;-46
2022/09/21 04:34:38;;;;;;;;;7.25;7.25;;;;;20.83;37.96;102002.09;5116096;27;45230;-48
2022/09/21 04:37:09;;;;;;;;;7.00;6.00;;;;;20.83;38.36;102007.34;5099406;27;45482;-48
2022/09/21 04:39:35;;;;;;;;;7.00;6.00;;;;;20.82;38.35;102003.88;5097909;27;47163;-46
2022/09/21 04:42:00;;;;;;;;;7.25;5.00;;;;;20.83;38.14;102007.34;5097856;27;45411;-50
2022/09/21 04:44:26;;;;;;;;;7.50;5.50;;;;;20.84;38.21;102009.06;5098647;27;45317;-47
2022/09/21 04:46:51;;;;;;;;;7.00;6.00;;;;;20.82;37.96;102005.63;5098733;27;45531;-48
2022/09/21 04:49:17;;;;;;;;;6.00;5.00;;;;;20.82;38.33;102005.63;5098341;27;47084;-47
2022/09/21 04:51:42;;;;;;;;;5.75;5.00;;;;;20.83;38.24;102015.25;5098082;27;45388;-48
2022/09/21 04:54:07;;;;;;;;;6.00;5.00;;;;;20.82;38.21;102017.06;5097907;27;45476;-46
2022/09/21 04:56:33;;;;;;;;;6.00;6.00;;;;;20.82;38.02;102014.41;5099205;27;45476;-46
2022/09/21 04:58:58;;;;;;;;;5.00;5.00;;;;;20.82;37.96;102022.31;5101148;27;46322;-49
2022/09/21 05:01:24;;;;;;;;;4.33;4.33;;;;;20.81;37.91;102025.00;5109836;27;65566;-47
2022/09/21 05:03:49;;;;;;;;;5.00;5.00;;;;;20.82;38.24;102021.44;5105186;27;45355;-51
2022/09/21 05:06:14;;;;;;;;;4.67;4.67;;;;;20.81;38.13;102014.44;5098591;27;58524;-50
2022/09/21 05:11:24;;;;;;;;;6.00;5.50;;;;;20.80;37.78;102018.88;5098329;27;45366;-49
2022/09/21 05:13:50;;;;;;;;;4.00;4.00;;;;;20.81;38.01;102014.44;5098043;27;45243;-50
2022/09/21 05:16:16;;;;;;;;;6.25;4.75;;;;;20.81;37.78;102017.09;5098428;27;45573;-49
2022/09/21 05:18:42;;;;;;;;;5.00;5.00;;;;;20.80;37.88;102018.00;5097848;27;46731;-49
2022/09/21 05:21:10;;;;;;;;;5.00;5.00;;;;;20.80;37.90;102012.72;5098308;27;45274;-51
2022/09/21 05:23:35;;;;;;;;;5.50;5.50;;;;;20.79;38.19;102011.88;5097499;27;45395;-48
2022/09/21 05:26:00;;;;;;;;;3.00;3.00;;;;;20.80;38.25;102010.09;5096805;27;45316;-51
2022/09/21 05:28:26;;;;;;;;;4.00;4.00;;;;;20.80;37.92;102016.25;5098304;27;46472;-51
2022/09/21 05:31:10;;;;;;;;;4.75;4.00;;;;;20.80;37.54;102018.88;5097551;27;45252;-52
2022/09/21 05:33:41;;;;;;;;;5.75;5.00;;;;;20.79;38.05;102017.16;5097882;27;45426;-49
2022/09/21 05:36:38;;;;;;;;;6.50;4.00;;;;;20.80;38.06;102010.09;5098393;27;45564;-51
2022/09/21 05:39:04;;;;;;;;;5.00;4.25;;;;;20.79;37.86;102014.53;5097267;27;46603;-47
2022/09/21 05:41:29;;;;;;;;;5.00;4.00;;;;;20.79;38.22;102016.28;5098193;27;45722;-50
2022/09/21 05:43:55;;;;;;;;;7.00;4.00;;;;;20.78;37.88;102015.44;5097402;27;45420;-51
2022/09/21 05:46:41;;;;;;;;;4.75;3.00;;;;;20.80;37.89;102018.00;5098032;27;45325;-47
2022/09/21 05:49:12;;;;;;;;;3.75;3.75;;;;;20.80;38.02;102023.28;5098245;27;45591;-46
2022/09/21 05:51:56;;;;;;;;;4.00;4.00;;;;;20.79;38.17;102022.44;5097470;27;46132;-47
2022/09/21 05:55:12;;;;;;;;;5.00;5.00;;;;;20.79;38.13;102021.56;5112386;27;44654;-51
2022/09/21 05:58:00;;;;;;;;;5.00;4.00;;;;;20.78;38.29;102014.59;5075529;28;45492;-47
2022/09/21 06:00:30;;;;;;;;;3.50;3.50;;;;;20.78;38.25;102019.84;5095554;27;45426;-48
2022/09/21 06:03:05;;;;;;;;;6.00;4.75;;;;;20.78;38.13;102009.31;5097095;27;45824;-47
2022/09/21 06:05:30;;;;;;;;;4.00;4.00;;;;;20.78;38.27;102017.22;5097732;27;45214;-47
2022/09/21 06:07:59;;;;;;;;;4.50;3.25;;;;;20.77;37.93;102016.34;5096346;27;45579;-45
2022/09/21 06:10:25;;;;;;;;;4.50;4.50;;;;;20.79;38.03;102016.28;5097325;27;46434;-46
2022/09/21 06:12:50;;;;;;;;;4.00;4.00;;;;;20.78;37.80;102012.81;5096786;27;45799;-51
2022/09/21 06:15:16;;;;;;;;;4.00;3.00;;;;;20.79;38.24;102016.28;5097075;27;51330;-49
2022/09/21 06:17:42;;;;;;;;;5.50;4.00;;;;;20.79;37.92;102011.88;5096741;27;45549;-46
2022/09/21 06:20:07;;;;;;;;;5.00;4.25;;;;;20.79;37.92;102016.28;5097042;27;45270;-48
2022/09/21 06:22:33;;;;;;;;;4.00;4.00;;;;;20.79;38.19;102025.06;5096149;27;45993;-46
2022/09/21 06:24:59;;;;;;;;;4.50;3.00;;;;;20.79;37.89;102022.44;5096967;27;45470;-50
2022/09/21 06:27:24;;;;;;;;;2.00;2.00;;;;;20.79;38.19;102022.44;5097005;27;47966;-46
2022/09/21 06:29:49;;;;;;;;;5.25;3.25;;;;;20.80;38.12;102023.28;5096373;27;52762;-47
2022/09/21 06:32:15;;;;;;;;;5.00;3.50;;;;;20.80;38.01;102023.28;5095058;27;64532;-49
2022/09/21 06:34:41;;;;;;;;;4.75;4.00;;;;;20.79;38.32;102025.06;5096652;27;45322;-49
2022/09/21 06:37:07;;;;;;;;;3.00;3.00;;;;;20.79;37.89;102025.06;5096646;27;45196;-47
2022/09/21 06:39:32;;;;;;;;;4.00;4.00;;;;;20.79;38.06;102027.69;5096860;27;47332;-46
2022/09/21 06:41:58;;;;;;;;;3.00;3.00;;;;;20.81;38.23;102025.00;5096582;27;45435;-47
2022/09/21 06:44:24;;;;;;;;;5.00;3.25;;;;;20.83;38.11;102033.69;5096917;27;45373;-46
2022/09/21 06:46:49;;;;;;;;;4.00;4.00;;;;;20.80;37.88;102026.78;5097052;27;45571;-48
2022/09/21 06:49:14;;;;;;;;;5.00;3.00;;;;;20.81;37.89;102025.00;5096077;27;47170;-47
2022/09/21 06:51:39;;;;;;;;;4.00;4.00;;;;;20.81;37.91;102019.72;5095805;27;45413;-45
2022/09/21 06:54:05;;;;;;;;;3.00;2.25;;;;;20.82;38.10;102032.88;5097019;27;45260;-49
2022/09/21 06:56:30;;;;;;;;;3.25;3.00;;;;;20.81;37.79;102032.91;5112794;27;45598;-47
2022/09/21 06:58:56;;;;;;;;;4.00;3.00;;;;;20.81;38.10;102027.63;5097199;27;46282;-48
2022/09/21 07:01:21;;;;;;;;;4.50;3.75;;;;;20.82;38.00;102031.97;5098457;27;45362;-46
2022/09/21 07:03:51;;;;;;;;;6.75;5.00;;;;;20.82;38.11;102030.22;5101518;27;45397;-49
2022/09/21 07:06:17;;;;;;;;;4.00;4.00;;;;;20.83;37.91;102028.44;5111623;27;45422;-45
2022/09/21 07:08:43;;;;;;;;;3.75;3.00;;;;;20.83;38.17;102020.53;5114628;27;46114;-46
2022/09/21 07:11:09;;;;;;;;;5.25;3.75;;;;;20.83;38.31;102025.78;5119113;27;45340;-46
2022/09/21 07:13:35;;;;;;;;;6.50;3.00;;;;;20.84;38.19;102030.16;5121377;27;44729;-48
2022/09/21 07:16:06;;;;;;;;;1.75;1.75;;;;;20.84;38.47;102038.06;5112496;27;45474;-48
2022/09/21 07:18:35;;;;;;;;;4.25;4.00;;;;;20.83;38.29;102026.69;5116033;27;46427;-49
2022/09/21 07:21:05;;;;;;;;;5.50;3.25;;;;;20.84;38.19;102024.88;5098978;27;45462;-49
2022/09/21 07:23:30;;;;;;;;;6.00;4.00;;;;;20.84;38.45;102024.88;5099555;27;45386;-46
2022/09/21 07:26:01;;;;;;;;;4.75;3.25;;;;;20.84;38.34;102023.09;5098823;27;45496;-47
2022/09/21 07:28:26;;;;;;;;;5.50;4.25;;;;;20.85;38.41;102026.59;5099741;27;46731;-49
2022/09/21 07:30:52;;;;;;;;;3.75;3.50;;;;;20.85;38.28;102021.34;5099675;27;45454;-49
2022/09/21 07:33:17;;;;;;;;;4.00;4.00;;;;;20.85;38.01;102026.59;5098512;27;45341;-49
2022/09/21 07:35:55;;;;;;;;;5.50;5.00;;;;;20.85;38.30;102023.97;5099140;27;45400;-51
2022/09/21 07:38:21;;;;;;;;;4.50;4.50;;;;;20.84;38.19;102020.47;5100332;27;46219;-49
2022/09/21 07:40:46;;;;;;;;;5.00;3.00;;;;;20.85;38.27;102021.34;5099276;27;45659;-49
2022/09/21 07:43:12;;;;;;;;;4.00;4.00;;;;;20.85;38.41;102016.06;5105853;27;45222;-51
2022/09/21 07:45:38;;;;;;;;;5.00;4.00;;;;;20.86;38.20;102017.78;5116418;27;44933;-47
2022/09/21 07:48:04;;;;;;;;;9.25;4.50;;;;;20.86;37.89;102012.53;5106549;27;45648;-48
2022/09/21 07:50:29;;;;;;;;;4.00;4.00;;;;;20.85;38.28;102014.28;5104586;27;45316;-50
2022/09/21 07:52:54;;;;;;;;;4.75;4.00;;;;;20.87;38.29;102014.25;5104569;27;45684;-49
2022/09/21 07:55:19;;;;;;;;;4.00;4.00;;;;;20.87;37.86;102014.25;5102311;27;45450;-49
2022/09/21 08:00:33;;;;;;;;;4.00;2.75;;;;;20.88;37.82;102013.31;5108822;27;45406;-49
2022/09/21 08:03:00;;;;;;;;;4.00;4.00;;;;;20.86;38.02;101996.72;5103036;27;45393;-48
2022/09/21 08:05:25;;;;;;;;;5.50;3.00;;;;;20.89;38.13;102003.63;5100223;27;45160;-46
2022/09/21 08:07:54;;;;;;;;;3.00;3.00;;;;;20.89;37.93;102007.09;5099355;27;45429;-45
2022/09/21 08:10:21;;;;;;;;;5.00;3.75;;;;;20.91;38.34;102007.91;5099995;27;45906;-47
2022/09/21 08:12:46;;;;;;;;;5.75;4.00;;;;;20.90;37.94;102014.09;5104436;27;45310;-46
2022/09/21 08:15:13;;;;;;;;;5.00;5.00;;;;;20.91;37.90;102009.69;5105554;27;45709;-52
2022/09/21 08:17:38;;;;;;;;;1.50;1.50;;;;;20.89;38.30;102012.38;5103133;27;46191;-49
2022/09/21 08:20:04;;;;;;;;;9.00;4.00;;;;;20.93;38.52;102015.78;5107202;27;45330;-50
2022/09/21 08:22:29;;;;;;;;;5.75;3.75;;;;;20.93;38.26;102016.63;5104795;27;45364;-50
2022/09/21 08:24:55;;;;;;;;;4.00;3.25;;;;;20.89;37.99;102007.09;5103114;27;44905;-51
2022/09/21 08:27:22;;;;;;;;;4.50;3.25;;;;;20.93;38.03;102011.34;5100251;27;46594;-50
2022/09/21 08:29:47;;;;;;;;;6.00;4.00;;;;;20.94;38.09;102020.97;5103319;27;45659;-48
2022/09/21 08:32:12;;;;;;;;;5.00;4.00;;;;;20.94;38.01;102018.34;5109998;27;50722;-50
